This is the latest recevied weather packets stored in our database for station/object N4OGP-WX. If no packets are shown the sender has not sent any weather packets the latest 10 day(s).
| Time | Temp. | Humidity | Pressure | Rain* | Wind** | Luminosity | Snow |
|---|---|---|---|---|---|---|---|
| 1777619330 | 21.11° C | 86% | 1009.1 hPa | 0 mm | - | - | - |
| 1777619270 | 23.89° C | 42% | 1020.4 hPa | 0 mm | - | - | - |
| 1777619211 | 21.11° C | 86% | 1009.1 hPa | 0 mm | - | - | - |
| 1777619150 | 23.89° C | 42% | 1020.4 hPa | 0 mm | - | - | - |
| 1777619091 | 23.89° C | 42% | 1020.4 hPa | 0 mm | - | - | - |
| 1777619030 | 21.11° C | 86% | 1009.2 hPa | 0 mm | - | - | - |
| 1777618941 | 23.89° C | 42% | 1020.4 hPa | 0 mm | - | - | - |
| 1777618880 | 21.11° C | 86% | 1009.2 hPa | 0 mm | - | - | - |
| 1777618821 | 21.67° C | 86% | 1009.2 hPa | 0 mm | - | - | - |
| 1777618760 | 23.89° C | 42% | 1020.4 hPa | 0 mm | - | - | - |
| 1777618671 | 23.89° C | 42% | 1020.4 hPa | 0 mm | - | - | - |
| 1777618610 | 21.67° C | 86% | 1009.2 hPa | 0 mm | - | - | - |
| 1777618551 | 23.89° C | 42% | 1020.4 hPa | 0 mm | - | - | - |
| 1777618491 | 21.67° C | 86% | 1009.2 hPa | 0 mm | - | - | - |
| 1777618431 | 21.67° C | 86% | 1009.2 hPa | 0 mm | - | - | - |
| 1777618340 | 23.89° C | 42% | 1020.4 hPa | 0 mm | - | - | - |
| 1777618281 | 23.89° C | 42% | 1020.4 hPa | 0 mm | - | - | - |
| 1777618190 | 21.67° C | 86% | 1009.3 hPa | 0 mm | - | - | - |
| 1777618101 | 21.67° C | 86% | 1009.2 hPa | 0 mm | - | - | - |
| 1777618041 | 21.67° C | 86% | 1009.2 hPa | 0 mm | - | - | - |
| 1777617951 | 21.67° C | 86% | 1009.2 hPa | 0 mm | - | - | - |
| 1777617891 | 21.67° C | 86% | 1009.2 hPa | 0 mm | - | - | - |
| 1777617801 | 23.89° C | 42% | 1020.4 hPa | 0 mm | - | - | - |
| 1777617741 | 21.67° C | 86% | 1009.3 hPa | 0 mm | - | - | - |
| 1777617681 | 23.89° C | 42% | 1020.4 hPa | 0 mm | - | - | - |
* Rain latest hour (hover to see other rain measurements)
** Current wind speed in m/s (hover to see current wind gust speed)